General Mariano Escobedo International Airport
MMMY : now visible

Airfield :











YOU CAN JOIN US ON...

 
LOGIN :

Register | Disclaimer

   EN    FR    IT 

 









Legend :    VFR   Marginal VFR   IFR   Intensive IFR   Very Intensive IFR
Visi :
Ceiling :
>= 8 km
>= 3000ft
5 to 8 km
1000 to 3000 ft
1500m to 5 km
500 to 1000 ft
800 to 1500m
200 to 500 ft
< 800m
< 200 ft
Symbols :   Thunderstorms  Fog  Heavy snow  Heavy precipitations  Wind > 20 kt






- Airport Elevation : 1278 ft
- IATA code : MTY


MMMY - General Mariano Escobedo International

CURRENT METAR :
  • 061440Z 32006KT 8SM SKC 20/13 A3013 RMK SLP/// 5//// 9// HZY ISOL CI

EXPIRED METARs :
  • 061340Z 29012KT 10SM SKC 17/11 A3010 RMK ISOL SC N
  • 061242Z 28008KT 10SM SKC 15/11 A3007

TAF TAF MMMY
Valid from the 06 at 12:00 until the 07 at 18:00 UTC


061031Z 0612/0718 28004KT P6SM SKC TX27/0621Z TN13/0612Z
FM061800 36008KT P6SM SCT020 SCT200
FM070600 08005KT P6SM SCT200
BECMG 0711/0713 34005KT



MET'MAP, your aeronautical weather chart ! - Copyright ORBIFLY December 2007 - Disclaimer

ORBIFLY MET'MAP TEAM :

Programming & Development : Alexandra Zaïnal
Concept & original design : Baudouin d'Aumeries
Assistance for programming : Marc-Olivier Méhu
Technical & hardware support : Manuel Goepfert

Contact : metmap@orbifly.com




SOURCES & CREDITS :

   NOAA       Earth
Advisory